sensor_id;sensor_type;location;lat;lon;timestamp;temperature;humidity
10451;DHT22;5273;51.290;6.918;2023-05-19T00:02:28;11.10;82.60
10451;DHT22;5273;51.290;6.918;2023-05-19T00:05:00;11.00;82.90
10451;DHT22;5273;51.290;6.918;2023-05-19T00:07:30;11.00;83.10
10451;DHT22;5273;51.290;6.918;2023-05-19T00:09:57;11.00;83.40
10451;DHT22;5273;51.290;6.918;2023-05-19T00:12:24;11.00;83.60
10451;DHT22;5273;51.290;6.918;2023-05-19T00:14:52;10.80;83.60
10451;DHT22;5273;51.290;6.918;2023-05-19T00:17:19;11.70;84.70
10451;DHT22;5273;51.290;6.918;2023-05-19T00:19:46;11.00;84.20
10451;DHT22;5273;51.290;6.918;2023-05-19T00:22:14;10.90;84.30
10451;DHT22;5273;51.290;6.918;2023-05-19T00:24:41;10.90;84.70
10451;DHT22;5273;51.290;6.918;2023-05-19T00:27:08;10.90;85.20
10451;DHT22;5273;51.290;6.918;2023-05-19T00:29:35;10.90;85.60
10451;DHT22;5273;51.290;6.918;2023-05-19T00:32:02;10.80;85.60
10451;DHT22;5273;51.290;6.918;2023-05-19T00:34:29;10.90;86.00
10451;DHT22;5273;51.290;6.918;2023-05-19T00:36:56;10.90;86.50
10451;DHT22;5273;51.290;6.918;2023-05-19T00:39:24;10.80;86.60
10451;DHT22;5273;51.290;6.918;2023-05-19T00:41:50;10.80;86.90
10451;DHT22;5273;51.290;6.918;2023-05-19T00:44:17;10.80;87.20
10451;DHT22;5273;51.290;6.918;2023-05-19T00:46:44;10.80;87.20
10451;DHT22;5273;51.290;6.918;2023-05-19T00:49:11;10.80;87.20
10451;DHT22;5273;51.290;6.918;2023-05-19T00:51:38;10.80;87.30
10451;DHT22;5273;51.290;6.918;2023-05-19T00:54:06;10.80;87.30
10451;DHT22;5273;51.290;6.918;2023-05-19T00:56:34;10.80;87.30
10451;DHT22;5273;51.290;6.918;2023-05-19T00:59:01;10.90;87.40
10451;DHT22;5273;51.290;6.918;2023-05-19T01:01:28;10.80;87.90
10451;DHT22;5273;51.290;6.918;2023-05-19T01:03:57;10.80;88.00
10451;DHT22;5273;51.290;6.918;2023-05-19T01:06:24;10.70;88.00
10451;DHT22;5273;51.290;6.918;2023-05-19T01:08:52;10.70;88.60
10451;DHT22;5273;51.290;6.918;2023-05-19T01:11:19;10.70;88.60
10451;DHT22;5273;51.290;6.918;2023-05-19T01:13:48;10.70;88.80
10451;DHT22;5273;51.290;6.918;2023-05-19T01:16:21;10.70;89.10
10451;DHT22;5273;51.290;6.918;2023-05-19T01:18:57;10.60;89.00
10451;DHT22;5273;51.290;6.918;2023-05-19T01:21:55;10.60;89.30
10451;DHT22;5273;51.290;6.918;2023-05-19T01:28:01;9.30;89.40
10451;DHT22;5273;51.290;6.918;2023-05-19T01:30:37;10.50;90.00
10451;DHT22;5273;51.290;6.918;2023-05-19T01:33:07;10.40;90.10
10451;DHT22;5273;51.290;6.918;2023-05-19T01:35:35;10.50;90.30
10451;DHT22;5273;51.290;6.918;2023-05-19T01:38:03;10.50;90.90
10451;DHT22;5273;51.290;6.918;2023-05-19T01:40:31;10.40;90.70
10451;DHT22;5273;51.290;6.918;2023-05-19T01:42:59;10.30;91.10
10451;DHT22;5273;51.290;6.918;2023-05-19T01:45:28;10.40;91.50
10451;DHT22;5273;51.290;6.918;2023-05-19T01:47:59;10.30;91.50
10451;DHT22;5273;51.290;6.918;2023-05-19T01:50:27;10.30;91.60
10451;DHT22;5273;51.290;6.918;2023-05-19T01:52:54;9.60;92.10
10451;DHT22;5273;51.290;6.918;2023-05-19T01:55:21;10.10;92.00
10451;DHT22;5273;51.290;6.918;2023-05-19T01:57:57;10.10;92.30
10451;DHT22;5273;51.290;6.918;2023-05-19T02:00:33;9.90;92.90
10451;DHT22;5273;51.290;6.918;2023-05-19T02:03:15;9.80;93.30
10451;DHT22;5273;51.290;6.918;2023-05-19T02:05:51;9.70;93.90
10451;DHT22;5273;51.290;6.918;2023-05-19T02:08:24;9.60;94.30
10451;DHT22;5273;51.290;6.918;2023-05-19T02:10:57;10.40;94.70
10451;DHT22;5273;51.290;6.918;2023-05-19T02:13:29;9.40;95.20
10451;DHT22;5273;51.290;6.918;2023-05-19T02:16:02;9.40;95.50
10451;DHT22;5273;51.290;6.918;2023-05-19T02:18:31;9.40;95.70
10451;DHT22;5273;51.290;6.918;2023-05-19T02:20:59;9.40;96.10
10451;DHT22;5273;51.290;6.918;2023-05-19T02:23:26;9.40;96.20
10451;DHT22;5273;51.290;6.918;2023-05-19T02:25:53;8.60;96.00
10451;DHT22;5273;51.290;6.918;2023-05-19T02:28:20;9.30;96.70
10451;DHT22;5273;51.290;6.918;2023-05-19T02:30:47;9.30;97.00
10451;DHT22;5273;51.290;6.918;2023-05-19T02:33:13;9.20;97.20
10451;DHT22;5273;51.290;6.918;2023-05-19T02:35:41;9.20;97.40
10451;DHT22;5273;51.290;6.918;2023-05-19T02:38:08;9.20;97.50
10451;DHT22;5273;51.290;6.918;2023-05-19T02:40:35;9.20;97.70
10451;DHT22;5273;51.290;6.918;2023-05-19T02:43:02;9.30;98.00
10451;DHT22;5273;51.290;6.918;2023-05-19T02:45:28;10.00;97.70
10451;DHT22;5273;51.290;6.918;2023-05-19T02:47:55;9.20;98.00
10451;DHT22;5273;51.290;6.918;2023-05-19T02:50:22;9.20;98.10
10451;DHT22;5273;51.290;6.918;2023-05-19T02:52:50;9.20;98.00
10451;DHT22;5273;51.290;6.918;2023-05-19T02:55:18;9.10;98.50
10451;DHT22;5273;51.290;6.918;2023-05-19T02:57:45;9.10;98.30
10451;DHT22;5273;51.290;6.918;2023-05-19T03:00:12;9.10;98.30
10451;DHT22;5273;51.290;6.918;2023-05-19T03:02:39;9.10;98.40
10451;DHT22;5273;51.290;6.918;2023-05-19T03:05:09;9.00;98.60
10451;DHT22;5273;51.290;6.918;2023-05-19T03:07:35;9.10;98.80
10451;DHT22;5273;51.290;6.918;2023-05-19T03:10:05;9.00;98.80
10451;DHT22;5273;51.290;6.918;2023-05-19T03:12:33;9.00;99.10
10451;DHT22;5273;51.290;6.918;2023-05-19T03:14:59;9.00;99.10
10451;DHT22;5273;51.290;6.918;2023-05-19T03:17:26;9.00;99.10
10451;DHT22;5273;51.290;6.918;2023-05-19T03:19:58;9.00;99.20
10451;DHT22;5273;51.290;6.918;2023-05-19T03:22:25;9.00;99.10
10451;DHT22;5273;51.290;6.918;2023-05-19T03:24:52;9.00;99.20
10451;DHT22;5273;51.290;6.918;2023-05-19T03:27:20;8.90;99.30
10451;DHT22;5273;51.290;6.918;2023-05-19T03:29:47;8.90;99.40
10451;DHT22;5273;51.290;6.918;2023-05-19T03:32:13;8.90;99.50
10451;DHT22;5273;51.290;6.918;2023-05-19T03:34:40;8.80;99.70
10451;DHT22;5273;51.290;6.918;2023-05-19T03:37:07;8.80;99.70
10451;DHT22;5273;51.290;6.918;2023-05-19T03:39:35;8.80;99.70
10451;DHT22;5273;51.290;6.918;2023-05-19T03:42:01;8.80;99.70
10451;DHT22;5273;51.290;6.918;2023-05-19T03:44:30;8.70;99.80
10451;DHT22;5273;51.290;6.918;2023-05-19T03:46:56;8.70;99.90
10451;DHT22;5273;51.290;6.918;2023-05-19T03:49:23;8.60;99.90
10451;DHT22;5273;51.290;6.918;2023-05-19T03:51:50;8.60;99.90
10451;DHT22;5273;51.290;6.918;2023-05-19T03:54:17;8.50;99.90
10451;DHT22;5273;51.290;6.918;2023-05-19T03:56:45;8.50;99.90
10451;DHT22;5273;51.290;6.918;2023-05-19T03:59:12;8.50;99.90
10451;DHT22;5273;51.290;6.918;2023-05-19T04:01:41;8.60;99.90
10451;DHT22;5273;51.290;6.918;2023-05-19T04:04:08;8.70;99.90
10451;DHT22;5273;51.290;6.918;2023-05-19T04:06:35;8.70;99.90
10451;DHT22;5273;51.290;6.918;2023-05-19T04:09:02;8.70;99.90
10451;DHT22;5273;51.290;6.918;2023-05-19T04:11:36;8.80;99.60
10451;DHT22;5273;51.290;6.918;2023-05-19T04:14:04;8.80;99.60
10451;DHT22;5273;51.290;6.918;2023-05-19T04:16:31;8.90;99.70
10451;DHT22;5273;51.290;6.918;2023-05-19T04:18:59;8.40;99.50
10451;DHT22;5273;51.290;6.918;2023-05-19T04:21:26;8.90;99.70
10451;DHT22;5273;51.290;6.918;2023-05-19T04:23:53;8.90;99.60
10451;DHT22;5273;51.290;6.918;2023-05-19T04:26:20;9.00;99.60
10451;DHT22;5273;51.290;6.918;2023-05-19T04:28:49;9.10;99.50
10451;DHT22;5273;51.290;6.918;2023-05-19T04:31:16;9.10;99.50
10451;DHT22;5273;51.290;6.918;2023-05-19T04:33:45;9.10;99.60
10451;DHT22;5273;51.290;6.918;2023-05-19T04:36:13;9.10;99.60
10451;DHT22;5273;51.290;6.918;2023-05-19T04:38:42;9.10;99.60
10451;DHT22;5273;51.290;6.918;2023-05-19T04:41:10;9.10;99.80
10451;DHT22;5273;51.290;6.918;2023-05-19T04:43:38;9.20;99.40
10451;DHT22;5273;51.290;6.918;2023-05-19T04:46:06;9.20;99.30
10451;DHT22;5273;51.290;6.918;2023-05-19T04:48:34;9.30;99.30
10451;DHT22;5273;51.290;6.918;2023-05-19T04:51:01;9.30;99.30
10451;DHT22;5273;51.290;6.918;2023-05-19T04:53:29;9.40;99.50
10451;DHT22;5273;51.290;6.918;2023-05-19T04:55:57;9.50;99.50
10451;DHT22;5273;51.290;6.918;2023-05-19T04:58:25;9.60;99.40
10451;DHT22;5273;51.290;6.918;2023-05-19T05:00:52;9.60;99.60
10451;DHT22;5273;51.290;6.918;2023-05-19T05:03:20;9.70;99.40
10451;DHT22;5273;51.290;6.918;2023-05-19T05:05:47;9.80;99.60
10451;DHT22;5273;51.290;6.918;2023-05-19T05:08:14;10.00;98.90
10451;DHT22;5273;51.290;6.918;2023-05-19T05:10:49;10.00;99.00
10451;DHT22;5273;51.290;6.918;2023-05-19T05:13:17;10.10;99.00
10451;DHT22;5273;51.290;6.918;2023-05-19T05:15:44;10.10;98.80
10451;DHT22;5273;51.290;6.918;2023-05-19T05:18:12;10.20;98.40
10451;DHT22;5273;51.290;6.918;2023-05-19T05:20:40;10.30;98.20
10451;DHT22;5273;51.290;6.918;2023-05-19T05:23:07;10.40;98.10
10451;DHT22;5273;51.290;6.918;2023-05-19T05:25:35;10.50;98.30
10451;DHT22;5273;51.290;6.918;2023-05-19T05:28:04;10.60;97.90
10451;DHT22;5273;51.290;6.918;2023-05-19T05:30:32;10.70;97.40
10451;DHT22;5273;51.290;6.918;2023-05-19T05:32:58;10.80;97.70
10451;DHT22;5273;51.290;6.918;2023-05-19T05:35:26;11.00;97.70
10451;DHT22;5273;51.290;6.918;2023-05-19T05:37:53;11.10;97.50
10451;DHT22;5273;51.290;6.918;2023-05-19T05:40:20;11.20;97.10
10451;DHT22;5273;51.290;6.918;2023-05-19T05:42:47;11.40;96.20
10451;DHT22;5273;51.290;6.918;2023-05-19T05:45:15;11.60;95.50
10451;DHT22;5273;51.290;6.918;2023-05-19T05:47:42;11.90;94.80
10451;DHT22;5273;51.290;6.918;2023-05-19T05:50:11;13.50;95.40
10451;DHT22;5273;51.290;6.918;2023-05-19T05:52:38;12.60;93.70
10451;DHT22;5273;51.290;6.918;2023-05-19T05:55:07;13.10;93.30
10451;DHT22;5273;51.290;6.918;2023-05-19T05:57:34;13.70;92.60
10451;DHT22;5273;51.290;6.918;2023-05-19T06:00:01;14.10;90.90
10451;DHT22;5273;51.290;6.918;2023-05-19T06:02:33;14.30;90.10
10451;DHT22;5273;51.290;6.918;2023-05-19T06:05:01;14.40;88.90
10451;DHT22;5273;51.290;6.918;2023-05-19T06:07:27;14.60;89.10
10451;DHT22;5273;51.290;6.918;2023-05-19T06:09:54;14.70;87.40
10451;DHT22;5273;51.290;6.918;2023-05-19T06:12:22;14.70;86.30
10451;DHT22;5273;51.290;6.918;2023-05-19T06:14:51;14.60;84.30
10451;DHT22;5273;51.290;6.918;2023-05-19T06:17:17;14.70;85.00
10451;DHT22;5273;51.290;6.918;2023-05-19T06:19:45;14.80;86.20
10451;DHT22;5273;51.290;6.918;2023-05-19T06:22:12;14.90;83.60
10451;DHT22;5273;51.290;6.918;2023-05-19T06:24:39;15.10;83.80
10451;DHT22;5273;51.290;6.918;2023-05-19T06:27:06;15.20;83.30
10451;DHT22;5273;51.290;6.918;2023-05-19T06:29:33;15.40;82.50
10451;DHT22;5273;51.290;6.918;2023-05-19T06:32:00;15.90;81.60
10451;DHT22;5273;51.290;6.918;2023-05-19T06:34:26;16.60;76.60
10451;DHT22;5273;51.290;6.918;2023-05-19T06:36:54;17.20;73.10
10451;DHT22;5273;51.290;6.918;2023-05-19T06:39:21;17.90;70.40
10451;DHT22;5273;51.290;6.918;2023-05-19T06:41:49;18.80;68.60
10451;DHT22;5273;51.290;6.918;2023-05-19T06:44:16;19.60;65.70
10451;DHT22;5273;51.290;6.918;2023-05-19T06:46:42;20.20;59.80
10451;DHT22;5273;51.290;6.918;2023-05-19T06:49:09;20.70;58.30
10451;DHT22;5273;51.290;6.918;2023-05-19T06:51:36;21.40;58.30
10451;DHT22;5273;51.290;6.918;2023-05-19T06:54:04;22.00;55.60
10451;DHT22;5273;51.290;6.918;2023-05-19T06:56:31;22.90;52.20
10451;DHT22;5273;51.290;6.918;2023-05-19T06:58:58;23.50;50.70
10451;DHT22;5273;51.290;6.918;2023-05-19T07:01:25;23.70;48.70
10451;DHT22;5273;51.290;6.918;2023-05-19T07:03:52;24.00;48.10
10451;DHT22;5273;51.290;6.918;2023-05-19T07:06:19;24.60;46.90
10451;DHT22;5273;51.290;6.918;2023-05-19T07:08:45;24.30;44.00
10451;DHT22;5273;51.290;6.918;2023-05-19T07:11:13;24.20;45.10
10451;DHT22;5273;51.290;6.918;2023-05-19T07:13:40;24.10;43.50
10451;DHT22;5273;51.290;6.918;2023-05-19T07:16:07;24.00;45.80
10451;DHT22;5273;51.290;6.918;2023-05-19T07:18:34;24.50;44.20
10451;DHT22;5273;51.290;6.918;2023-05-19T07:21:00;24.80;44.40
10451;DHT22;5273;51.290;6.918;2023-05-19T07:23:27;25.60;43.40
10451;DHT22;5273;51.290;6.918;2023-05-19T07:25:54;26.00;41.00
10451;DHT22;5273;51.290;6.918;2023-05-19T07:28:23;26.00;40.20
10451;DHT22;5273;51.290;6.918;2023-05-19T07:30:49;26.30;39.40
10451;DHT22;5273;51.290;6.918;2023-05-19T07:33:17;26.50;38.90
10451;DHT22;5273;51.290;6.918;2023-05-19T07:35:44;26.80;38.00
10451;DHT22;5273;51.290;6.918;2023-05-19T07:38:11;27.00;37.20
10451;DHT22;5273;51.290;6.918;2023-05-19T07:40:38;27.50;36.80
10451;DHT22;5273;51.290;6.918;2023-05-19T07:43:05;27.30;35.90
10451;DHT22;5273;51.290;6.918;2023-05-19T07:45:33;26.20;36.50
10451;DHT22;5273;51.290;6.918;2023-05-19T07:48:00;27.10;36.80
10451;DHT22;5273;51.290;6.918;2023-05-19T07:50:26;27.40;36.90
10451;DHT22;5273;51.290;6.918;2023-05-19T07:52:53;27.60;37.10
10451;DHT22;5273;51.290;6.918;2023-05-19T07:55:20;28.10;37.00
10451;DHT22;5273;51.290;6.918;2023-05-19T07:57:47;28.70;36.10
10451;DHT22;5273;51.290;6.918;2023-05-19T08:00:15;29.50;34.80
10451;DHT22;5273;51.290;6.918;2023-05-19T08:02:43;30.30;33.90
10451;DHT22;5273;51.290;6.918;2023-05-19T08:05:10;30.50;30.70
10451;DHT22;5273;51.290;6.918;2023-05-19T08:07:37;29.20;30.80
10451;DHT22;5273;51.290;6.918;2023-05-19T08:10:04;28.90;31.60
10451;DHT22;5273;51.290;6.918;2023-05-19T08:12:31;29.30;33.20
10451;DHT22;5273;51.290;6.918;2023-05-19T08:14:58;29.60;32.80
10451;DHT22;5273;51.290;6.918;2023-05-19T08:17:25;28.80;29.80
10451;DHT22;5273;51.290;6.918;2023-05-19T08:19:53;29.00;30.10
10451;DHT22;5273;51.290;6.918;2023-05-19T08:22:20;28.30;30.30
10451;DHT22;5273;51.290;6.918;2023-05-19T08:24:47;28.40;30.10
10451;DHT22;5273;51.290;6.918;2023-05-19T08:27:14;28.00;31.10
10451;DHT22;5273;51.290;6.918;2023-05-19T08:29:41;27.80;31.90
10451;DHT22;5273;51.290;6.918;2023-05-19T08:32:07;27.60;31.20
10451;DHT22;5273;51.290;6.918;2023-05-19T08:34:34;27.90;30.60
10451;DHT22;5273;51.290;6.918;2023-05-19T08:37:03;27.50;32.60
10451;DHT22;5273;51.290;6.918;2023-05-19T08:39:29;27.80;34.00
10451;DHT22;5273;51.290;6.918;2023-05-19T08:41:58;28.50;33.90
10451;DHT22;5273;51.290;6.918;2023-05-19T08:44:26;29.50;31.30
10451;DHT22;5273;51.290;6.918;2023-05-19T08:46:54;29.80;32.20
10451;DHT22;5273;51.290;6.918;2023-05-19T08:49:24;30.40;28.70
10451;DHT22;5273;51.290;6.918;2023-05-19T08:51:56;30.70;29.30
10451;DHT22;5273;51.290;6.918;2023-05-19T08:54:36;30.80;28.50
10451;DHT22;5273;51.290;6.918;2023-05-19T08:57:07;30.80;29.30
10451;DHT22;5273;51.290;6.918;2023-05-19T08:59:34;31.10;28.60
10451;DHT22;5273;51.290;6.918;2023-05-19T09:02:02;30.40;27.30
10451;DHT22;5273;51.290;6.918;2023-05-19T09:04:29;30.10;30.00
10451;DHT22;5273;51.290;6.918;2023-05-19T09:06:57;30.60;29.50
10451;DHT22;5273;51.290;6.918;2023-05-19T09:09:29;30.70;27.00
10451;DHT22;5273;51.290;6.918;2023-05-19T09:11:57;30.60;28.80
10451;DHT22;5273;51.290;6.918;2023-05-19T09:14:23;31.30;29.10
10451;DHT22;5273;51.290;6.918;2023-05-19T09:16:50;31.40;28.30
10451;DHT22;5273;51.290;6.918;2023-05-19T09:19:17;30.70;28.00
10451;DHT22;5273;51.290;6.918;2023-05-19T09:21:45;30.00;28.70
10451;DHT22;5273;51.290;6.918;2023-05-19T09:24:12;29.90;27.90
10451;DHT22;5273;51.290;6.918;2023-05-19T09:26:41;29.60;29.20
10451;DHT22;5273;51.290;6.918;2023-05-19T09:29:11;30.00;28.40
10451;DHT22;5273;51.290;6.918;2023-05-19T09:31:38;30.40;28.40
10451;DHT22;5273;51.290;6.918;2023-05-19T09:34:11;30.70;28.40
10451;DHT22;5273;51.290;6.918;2023-05-19T09:36:39;31.40;29.40
10451;DHT22;5273;51.290;6.918;2023-05-19T09:39:12;31.80;28.80
10451;DHT22;5273;51.290;6.918;2023-05-19T09:41:40;32.20;27.70
10451;DHT22;5273;51.290;6.918;2023-05-19T09:44:11;33.00;27.40
10451;DHT22;5273;51.290;6.918;2023-05-19T09:46:46;33.40;26.80
10451;DHT22;5273;51.290;6.918;2023-05-19T09:49:18;33.40;27.50
10451;DHT22;5273;51.290;6.918;2023-05-19T09:51:45;33.40;25.30
10451;DHT22;5273;51.290;6.918;2023-05-19T09:54:14;32.60;25.20
10451;DHT22;5273;51.290;6.918;2023-05-19T09:56:43;32.20;26.00
10451;DHT22;5273;51.290;6.918;2023-05-19T09:59:10;32.20;26.00
10451;DHT22;5273;51.290;6.918;2023-05-19T10:01:37;32.20;24.70
10451;DHT22;5273;51.290;6.918;2023-05-19T10:04:06;31.60;25.70
10451;DHT22;5273;51.290;6.918;2023-05-19T10:06:33;31.00;26.00
10451;DHT22;5273;51.290;6.918;2023-05-19T10:09:01;30.90;26.50
10451;DHT22;5273;51.290;6.918;2023-05-19T10:11:29;30.20;27.80
10451;DHT22;5273;51.290;6.918;2023-05-19T10:13:58;30.30;29.10
10451;DHT22;5273;51.290;6.918;2023-05-19T10:16:26;30.40;27.90
10451;DHT22;5273;51.290;6.918;2023-05-19T10:18:54;31.60;26.90
10451;DHT22;5273;51.290;6.918;2023-05-19T10:21:23;32.20;25.80
10451;DHT22;5273;51.290;6.918;2023-05-19T10:23:49;31.70;26.50
10451;DHT22;5273;51.290;6.918;2023-05-19T10:26:16;30.80;27.30
10451;DHT22;5273;51.290;6.918;2023-05-19T10:28:44;30.00;28.10
10451;DHT22;5273;51.290;6.918;2023-05-19T10:31:17;29.70;27.80
10451;DHT22;5273;51.290;6.918;2023-05-19T10:33:59;30.20;28.10
10451;DHT22;5273;51.290;6.918;2023-05-19T10:36:40;31.00;28.30
10451;DHT22;5273;51.290;6.918;2023-05-19T10:39:15;32.00;26.50
10451;DHT22;5273;51.290;6.918;2023-05-19T10:41:46;32.30;27.50
10451;DHT22;5273;51.290;6.918;2023-05-19T10:44:22;31.80;26.00
10451;DHT22;5273;51.290;6.918;2023-05-19T10:46:54;30.50;27.60
10451;DHT22;5273;51.290;6.918;2023-05-19T10:49:22;29.70;28.50
10451;DHT22;5273;51.290;6.918;2023-05-19T10:51:49;29.10;28.00
10451;DHT22;5273;51.290;6.918;2023-05-19T10:54:41;28.60;29.70
10451;DHT22;5273;51.290;6.918;2023-05-19T10:57:13;28.30;30.80
10451;DHT22;5273;51.290;6.918;2023-05-19T10:59:41;28.40;32.60
10451;DHT22;5273;51.290;6.918;2023-05-19T11:02:09;27.90;30.30
10451;DHT22;5273;51.290;6.918;2023-05-19T11:04:45;27.70;30.20
10451;DHT22;5273;51.290;6.918;2023-05-19T11:07:16;27.70;31.60
10451;DHT22;5273;51.290;6.918;2023-05-19T11:09:48;27.20;31.10
10451;DHT22;5273;51.290;6.918;2023-05-19T11:12:19;27.00;31.20
10451;DHT22;5273;51.290;6.918;2023-05-19T11:14:47;27.00;33.40
10451;DHT22;5273;51.290;6.918;2023-05-19T11:17:14;26.60;32.40
10451;DHT22;5273;51.290;6.918;2023-05-19T11:19:51;26.00;32.00
10451;DHT22;5273;51.290;6.918;2023-05-19T11:22:22;25.70;32.60
10451;DHT22;5273;51.290;6.918;2023-05-19T11:24:53;25.20;33.50
10451;DHT22;5273;51.290;6.918;2023-05-19T11:27:23;25.00;37.30
10451;DHT22;5273;51.290;6.918;2023-05-19T11:29:51;25.00;34.00
10451;DHT22;5273;51.290;6.918;2023-05-19T11:32:19;25.20;36.50
10451;DHT22;5273;51.290;6.918;2023-05-19T11:34:47;24.90;36.70
10451;DHT22;5273;51.290;6.918;2023-05-19T11:37:14;25.20;36.90
10451;DHT22;5273;51.290;6.918;2023-05-19T11:39:41;25.20;36.70
10451;DHT22;5273;51.290;6.918;2023-05-19T11:42:10;25.20;34.60
10451;DHT22;5273;51.290;6.918;2023-05-19T11:44:37;25.00;34.90
10451;DHT22;5273;51.290;6.918;2023-05-19T11:47:06;24.90;35.30
10451;DHT22;5273;51.290;6.918;2023-05-19T11:49:33;24.40;34.50
10451;DHT22;5273;51.290;6.918;2023-05-19T11:52:00;24.40;37.70
10451;DHT22;5273;51.290;6.918;2023-05-19T11:54:31;24.60;38.00
10451;DHT22;5273;51.290;6.918;2023-05-19T11:57:00;24.80;38.50
10451;DHT22;5273;51.290;6.918;2023-05-19T11:59:32;25.00;39.00
10451;DHT22;5273;51.290;6.918;2023-05-19T12:02:15;25.30;38.70
10451;DHT22;5273;51.290;6.918;2023-05-19T12:04:42;25.50;38.50
10451;DHT22;5273;51.290;6.918;2023-05-19T12:07:10;25.60;38.30
10451;DHT22;5273;51.290;6.918;2023-05-19T12:09:37;25.60;37.30
10451;DHT22;5273;51.290;6.918;2023-05-19T12:12:05;25.50;35.30
10451;DHT22;5273;51.290;6.918;2023-05-19T12:14:33;25.50;37.10
10451;DHT22;5273;51.290;6.918;2023-05-19T12:17:09;25.30;36.40
10451;DHT22;5273;51.290;6.918;2023-05-19T12:19:36;24.80;34.80
10451;DHT22;5273;51.290;6.918;2023-05-19T12:22:05;24.10;35.70
10451;DHT22;5273;51.290;6.918;2023-05-19T12:24:32;23.60;37.10
10451;DHT22;5273;51.290;6.918;2023-05-19T12:27:05;23.30;36.60
10451;DHT22;5273;51.290;6.918;2023-05-19T12:29:33;23.00;37.60
10451;DHT22;5273;51.290;6.918;2023-05-19T12:32:00;22.90;39.50
10451;DHT22;5273;51.290;6.918;2023-05-19T12:34:27;23.10;40.40
10451;DHT22;5273;51.290;6.918;2023-05-19T12:36:54;23.30;38.50
10451;DHT22;5273;51.290;6.918;2023-05-19T12:39:21;23.20;37.40
10451;DHT22;5273;51.290;6.918;2023-05-19T12:41:49;23.20;38.80
10451;DHT22;5273;51.290;6.918;2023-05-19T12:44:16;23.30;39.00
10451;DHT22;5273;51.290;6.918;2023-05-19T12:46:44;23.40;38.10
10451;DHT22;5273;51.290;6.918;2023-05-19T12:49:11;23.40;38.10
10451;DHT22;5273;51.290;6.918;2023-05-19T12:51:38;23.10;39.30
10451;DHT22;5273;51.290;6.918;2023-05-19T12:54:04;23.00;40.40
10451;DHT22;5273;51.290;6.918;2023-05-19T12:56:31;23.00;37.60
10451;DHT22;5273;51.290;6.918;2023-05-19T12:58:59;23.10;39.50
10451;DHT22;5273;51.290;6.918;2023-05-19T13:01:28;23.00;40.00
10451;DHT22;5273;51.290;6.918;2023-05-19T13:03:57;23.20;39.80
10451;DHT22;5273;51.290;6.918;2023-05-19T13:06:24;23.20;41.40
10451;DHT22;5273;51.290;6.918;2023-05-19T13:08:50;23.30;39.10
10451;DHT22;5273;51.290;6.918;2023-05-19T13:11:17;23.10;38.20
10451;DHT22;5273;51.290;6.918;2023-05-19T13:13:44;23.10;39.40
10451;DHT22;5273;51.290;6.918;2023-05-19T13:16:11;23.20;39.20
10451;DHT22;5273;51.290;6.918;2023-05-19T13:18:38;23.30;39.30
10451;DHT22;5273;51.290;6.918;2023-05-19T13:21:06;23.50;38.40
10451;DHT22;5273;51.290;6.918;2023-05-19T13:23:33;23.50;40.20
10451;DHT22;5273;51.290;6.918;2023-05-19T13:26:00;23.40;38.30
10451;DHT22;5273;51.290;6.918;2023-05-19T13:28:29;23.10;39.30
10451;DHT22;5273;51.290;6.918;2023-05-19T13:30:56;23.00;39.40
10451;DHT22;5273;51.290;6.918;2023-05-19T13:33:22;23.10;41.00
10451;DHT22;5273;51.290;6.918;2023-05-19T13:35:49;23.20;40.50
10451;DHT22;5273;51.290;6.918;2023-05-19T13:38:18;23.30;38.60
10451;DHT22;5273;51.290;6.918;2023-05-19T13:40:44;23.10;38.90
10451;DHT22;5273;51.290;6.918;2023-05-19T13:43:11;23.20;40.60
10451;DHT22;5273;51.290;6.918;2023-05-19T13:45:38;23.10;38.60
10451;DHT22;5273;51.290;6.918;2023-05-19T13:48:06;23.00;38.50
10451;DHT22;5273;51.290;6.918;2023-05-19T13:50:33;23.00;40.00
10451;DHT22;5273;51.290;6.918;2023-05-19T13:53:00;22.70;38.80
10451;DHT22;5273;51.290;6.918;2023-05-19T13:55:29;22.20;41.30
10451;DHT22;5273;51.290;6.918;2023-05-19T13:57:56;22.10;42.00
10451;DHT22;5273;51.290;6.918;2023-05-19T14:00:23;22.20;39.80
10451;DHT22;5273;51.290;6.918;2023-05-19T14:02:49;22.30;40.70
10451;DHT22;5273;51.290;6.918;2023-05-19T14:05:17;22.50;41.60
10451;DHT22;5273;51.290;6.918;2023-05-19T14:07:44;22.50;39.50
10451;DHT22;5273;51.290;6.918;2023-05-19T14:10:11;22.30;39.10
10451;DHT22;5273;51.290;6.918;2023-05-19T14:12:39;22.00;39.60
10451;DHT22;5273;51.290;6.918;2023-05-19T14:15:07;21.80;39.10
10451;DHT22;5273;51.290;6.918;2023-05-19T14:17:34;21.70;40.20
10451;DHT22;5273;51.290;6.918;2023-05-19T14:20:01;21.70;40.70
10451;DHT22;5273;51.290;6.918;2023-05-19T14:22:27;21.70;40.10
10451;DHT22;5273;51.290;6.918;2023-05-19T14:24:54;21.80;39.80
10451;DHT22;5273;51.290;6.918;2023-05-19T14:27:21;21.80;41.10
10451;DHT22;5273;51.290;6.918;2023-05-19T14:29:49;22.00;39.40
10451;DHT22;5273;51.290;6.918;2023-05-19T14:32:16;22.00;38.80
10451;DHT22;5273;51.290;6.918;2023-05-19T14:34:43;22.10;39.90
10451;DHT22;5273;51.290;6.918;2023-05-19T14:37:09;22.20;40.10
10451;DHT22;5273;51.290;6.918;2023-05-19T14:39:36;22.30;40.20
10451;DHT22;5273;51.290;6.918;2023-05-19T14:42:04;22.40;38.30
10451;DHT22;5273;51.290;6.918;2023-05-19T14:44:31;22.10;37.70
10451;DHT22;5273;51.290;6.918;2023-05-19T14:47:00;22.10;39.20
10451;DHT22;5273;51.290;6.918;2023-05-19T14:49:27;22.10;39.10
10451;DHT22;5273;51.290;6.918;2023-05-19T14:51:54;22.20;40.30
10451;DHT22;5273;51.290;6.918;2023-05-19T14:54:21;22.20;39.60
10451;DHT22;5273;51.290;6.918;2023-05-19T14:56:47;22.30;39.30
10451;DHT22;5273;51.290;6.918;2023-05-19T14:59:14;22.40;38.40
10451;DHT22;5273;51.290;6.918;2023-05-19T15:01:41;22.20;36.80
10451;DHT22;5273;51.290;6.918;2023-05-19T15:04:09;22.10;38.10
10451;DHT22;5273;51.290;6.918;2023-05-19T15:06:36;22.20;38.10
10451;DHT22;5273;51.290;6.918;2023-05-19T15:09:03;22.10;38.10
10451;DHT22;5273;51.290;6.918;2023-05-19T15:11:29;22.10;36.60
10451;DHT22;5273;51.290;6.918;2023-05-19T15:13:56;22.10;38.50
10451;DHT22;5273;51.290;6.918;2023-05-19T15:16:23;22.10;37.80
10451;DHT22;5273;51.290;6.918;2023-05-19T15:18:50;21.90;37.90
10451;DHT22;5273;51.290;6.918;2023-05-19T15:21:18;21.90;37.20
10451;DHT22;5273;51.290;6.918;2023-05-19T15:23:45;21.90;37.60
10451;DHT22;5273;51.290;6.918;2023-05-19T15:26:12;21.90;36.40
10451;DHT22;5273;51.290;6.918;2023-05-19T15:28:39;21.80;37.90
10451;DHT22;5273;51.290;6.918;2023-05-19T15:31:06;21.70;38.30
10451;DHT22;5273;51.290;6.918;2023-05-19T15:33:33;21.70;37.70
10451;DHT22;5273;51.290;6.918;2023-05-19T15:36:00;21.80;37.40
10451;DHT22;5273;51.290;6.918;2023-05-19T15:38:28;21.90;38.90
10451;DHT22;5273;51.290;6.918;2023-05-19T15:40:55;21.60;37.10
10451;DHT22;5273;51.290;6.918;2023-05-19T15:43:22;21.50;38.30
10451;DHT22;5273;51.290;6.918;2023-05-19T15:45:49;21.50;39.30
10451;DHT22;5273;51.290;6.918;2023-05-19T15:48:19;21.50;38.10
10451;DHT22;5273;51.290;6.918;2023-05-19T15:50:46;21.50;37.60
10451;DHT22;5273;51.290;6.918;2023-05-19T15:53:13;21.50;37.60
10451;DHT22;5273;51.290;6.918;2023-05-19T15:55:41;21.60;38.20
10451;DHT22;5273;51.290;6.918;2023-05-19T15:58:08;21.60;37.00
10451;DHT22;5273;51.290;6.918;2023-05-19T16:00:36;21.70;37.80